Franz 007 im Turnier von 01.02.2019 bis 01.03.2019

Franz 007s Ergebnis

Rang 113.
Turnierpunkte 1018
Gespielt : Gewonnen 100 : 64
Schneider 10
Bilanz 604:468

Franz 007s Bummerln

Zeit Gegner Ergebnis Ende
18:37:03 am 26.02.2019 many 2:7 normal
16:55:44 am 22.02.2019 silke 7:5 normal
16:50:18 am 22.02.2019 Sino 666 7:2 normal
16:48:22 am 22.02.2019 Herbert 0:7 normal
11:01:11 am 22.02.2019 manuel 7:0 normal
09:44:17 am 22.02.2019 Marsvenus 6:8 normal
22:28:17 am 20.02.2019 Mario Gindl 7:5 normal
22:24:37 am 20.02.2019 Dietmar Igelsböck 4:8 normal
19:13:32 am 20.02.2019 *Mir Wurscht und tsch... 7:6 autocontnormal
12:04:27 am 20.02.2019 obomo 7:4 normal
20:41:51 am 19.02.2019 kingluy 7:0 normal
20:24:34 am 19.02.2019 GAK Mario 8:0 normal
20:19:43 am 19.02.2019 poldi7 5:8 normal
18:34:52 am 19.02.2019 Thomas 6:7 normal
18:30:21 am 19.02.2019 Jürgen 6:7 normal
12:50:10 am 19.02.2019 Herwig Feichtinger 7:5 normal
09:53:33 am 19.02.2019 Wuif 8:3 normal
08:41:58 am 19.02.2019 Trucker fred 3:7 normal
08:36:16 am 19.02.2019 Kati 9:2 normal
08:31:44 am 19.02.2019 TheShadow 3:7 normal
08:25:30 am 19.02.2019 Harry 5:8 normal
08:19:16 am 19.02.2019 Vinitor 7:3 normal
13:07:38 am 18.02.2019 Carina06 9:6 normal
09:49:42 am 18.02.2019 StevD 8:4 normal
09:36:38 am 18.02.2019 samsung SM-A320FL 8:4 normal
21:08:18 am 17.02.2019 Hanss iPhone 9:6 normal
21:06:00 am 17.02.2019 Gerhard4 8:0 normal
10:14:53 am 17.02.2019 Christian Glaser 8:5 normal
10:12:43 am 17.02.2019 Hr. Werner 7:2 normal
10:08:36 am 17.02.2019 Fuzzi 2:7 normal
10:03:31 am 17.02.2019 Michel 8:4 normal
10:01:07 am 17.02.2019 D.R. 0:7 normal
23:03:02 am 16.02.2019 g.feldhofer@gmail.com 7:6 normal
22:48:31 am 16.02.2019 modo29 9:4 normal
22:42:55 am 16.02.2019 Bako 7:4 normal
16:10:49 am 16.02.2019 stefan 9:3 normal
15:44:55 am 16.02.2019 WettenDass??? 6:9 normal
12:57:24 am 16.02.2019 Ewald 9:2 normal
22:28:03 am 15.02.2019 Ramon 7:6 normal
22:24:11 am 15.02.2019 bischi 10 4:7 normal
16:11:48 am 15.02.2019 peter 7:3 normal
16:02:16 am 15.02.2019 Verlierer 7:6 normal
15:57:46 am 15.02.2019 Christine 1:7 normal
15:53:04 am 15.02.2019 Patrick Brunner 8:4 normal
15:45:56 am 15.02.2019 Erwin.M. 9:4 normal
15:42:55 am 15.02.2019 Stefan Stichauner 3:8 normal
11:31:53 am 15.02.2019 hulapalu 8:2 normal
23:09:48 am 14.02.2019 Spygirl 9:0 normal
20:25:55 am 12.02.2019 Speedy 7:2 normal
09:31:37 am 12.02.2019 michl 7:1 normal
08:38:29 am 11.02.2019 Christian Timischl 7:5 normal
22:31:36 am 10.02.2019 *jofo 8:0 autocontnormal
22:26:52 am 10.02.2019 DELETED 6:8 normal
22:03:58 am 10.02.2019 DELETED 5:9 normal
21:52:00 am 10.02.2019 Tom Screen 8:2 normal
18:20:37 am 10.02.2019 Martin PLanegger 2:7 normal
14:15:31 am 10.02.2019 Atina 8:2 normal
09:24:50 am 10.02.2019 martin 8:3 normal
09:19:21 am 10.02.2019 Willi G 8:4 normal
23:49:40 am 09.02.2019 reisi 7:6 normal
23:42:21 am 09.02.2019 Grüngewinnt 7:1 normal
23:37:19 am 09.02.2019 Bernadette V 5:7 normal
16:18:25 am 09.02.2019 Josef Fritz 9:1 normal
11:27:40 am 09.02.2019 Speedbert 63 8:0 normal
22:28:28 am 06.02.2019 Thomas Weiß 7:3 normal
22:23:14 am 06.02.2019 hh3 2:7 normal
22:19:14 am 06.02.2019 heinz 66 7:1 normal
22:06:19 am 06.02.2019 Ami 8:5 normal
15:45:45 am 06.02.2019 Jo Hannes 7:0 normal
14:12:32 am 06.02.2019 Woody 5:8 normal
14:08:58 am 06.02.2019 CGG170 3:8 normal
22:45:45 am 05.02.2019 sean 7:6 normal
22:01:42 am 05.02.2019 knagg 8:2 normal
17:32:07 am 05.02.2019 Kregoar 8:3 normal
17:23:13 am 04.02.2019 dobszai istvan 7:6 normal
08:48:23 am 04.02.2019 *Martin - give-up
21:03:50 am 03.02.2019 Rickv 7:1 normal
19:45:38 am 03.02.2019 lorenzo10 9:6 normal
19:38:37 am 03.02.2019 Heinz 7:1 normal
19:10:21 am 03.02.2019 Pycko 5:8 normal
18:59:08 am 03.02.2019 Sonja742Sonja 3:7 normal
18:54:41 am 03.02.2019 1 Zinkdach 4:7 normal
18:24:34 am 03.02.2019 Bariton 0:7 normal
18:18:16 am 03.02.2019 chet bäcker 7:5 normal
09:28:08 am 03.02.2019 Stefan 8:0 normal
09:22:02 am 03.02.2019 7:6 normal
21:46:29 am 02.02.2019 Anneliese Tonninger 8:2 normal
18:53:21 am 02.02.2019 Mario 0:9 normal
18:47:32 am 02.02.2019 reini 2:8 normal
18:42:44 am 02.02.2019 scr4 8:4 normal
18:39:07 am 02.02.2019 gertrude böheim 3:9 normal
18:37:49 am 02.02.2019 *SuperOpa1963 - give-up
18:33:27 am 02.02.2019 ...Beeeeeee... 8:1 normal
22:27:17 am 01.02.2019 *Christian 8:0 autocontnormal
17:38:45 am 01.02.2019 René 5:8 normal
11:36:05 am 01.02.2019 tim 2:9 normal
11:26:44 am 01.02.2019 Walter742 7:4 normal
10:57:05 am 01.02.2019 Alles 7:2 normal
10:52:46 am 01.02.2019 Pezi 3:7 normal
10:50:50 am 01.02.2019 Karl-Heinz Beitl 0:7 normal